Time;durP1;ratioP1;P1;durP2;ratioP2;P2;SDS_P1;SDS_P2;PMS_P1;PMS_P2;Temp;Humidity;BMP_temperature;BMP_pressure;BME280_temperature;BME280_humidity;BME280_pressure;Samples;Min_cycle;Max_cycle;Signal;HPM_P1;HPM_P2
2023/03/20 00:02:04;;;;;;;8.37;5.23;;;10.90;99.90;;;;;;7922729;28;20211;-88
2023/03/20 00:05:50;;;;;;;7.70;5.53;;;10.90;99.90;;;;;;7908247;28;20208;-87
2023/03/20 00:09:36;;;;;;;8.23;4.93;;;10.80;99.90;;;;;;7906237;28;20238;-87
2023/03/20 00:13:25;;;;;;;7.67;5.40;;;10.90;99.90;;;;;;7911818;28;20201;-87
2023/03/20 00:17:17;;;;;;;8.60;5.13;;;10.90;99.90;;;;;;7898963;28;20176;-87
2023/03/20 00:21:02;;;;;;;7.13;5.10;;;10.90;99.90;;;;;;7904977;28;20536;-87
2023/03/20 00:24:48;;;;;;;7.80;5.27;;;10.90;99.90;;;;;;7903458;28;20299;-87
2023/03/20 00:28:42;;;;;;;8.27;5.47;;;10.90;99.90;;;;;;7905133;28;20217;-88
2023/03/20 00:32:28;;;;;;;8.67;5.83;;;10.80;99.90;;;;;;7906133;28;20649;-87
2023/03/20 00:36:14;;;;;;;8.17;5.20;;;10.80;99.90;;;;;;7923210;28;20566;-88
2023/03/20 00:39:59;;;;;;;9.20;5.50;;;10.60;99.90;;;;;;7890431;28;20584;-88
2023/03/20 00:43:48;;;;;;;7.90;5.50;;;10.60;99.90;;;;;;7923040;28;20853;-88
2023/03/20 00:47:36;;;;;;;6.50;5.13;;;10.60;99.90;;;;;;7897424;28;20185;-87
2023/03/20 00:51:22;;;;;;;10.27;5.90;;;10.60;99.90;;;;;;7907459;28;20690;-87
2023/03/20 00:55:08;;;;;;;8.20;5.70;;;10.60;99.90;;;;;;7906280;28;20733;-88
2023/03/20 00:58:53;;;;;;;9.07;5.70;;;10.60;99.90;;;;;;7905612;28;20271;-88
2023/03/20 01:02:39;;;;;;;9.57;6.00;;;10.60;99.90;;;;;;7893997;28;20185;-88
2023/03/20 01:06:25;;;;;;;8.90;6.53;;;10.50;99.90;;;;;;7886515;28;20742;-88
2023/03/20 01:10:11;;;;;;;8.13;6.20;;;10.50;99.90;;;;;;7894567;28;20739;-87
2023/03/20 01:13:57;;;;;;;10.07;6.63;;;10.50;99.90;;;;;;7913084;28;20207;-87
2023/03/20 01:17:43;;;;;;;9.57;6.27;;;10.40;99.90;;;;;;7880440;28;20181;-87
2023/03/20 01:21:28;;;;;;;10.63;6.37;;;10.40;99.90;;;;;;7882335;28;20256;-88
2023/03/20 01:25:15;;;;;;;9.97;7.00;;;10.40;99.90;;;;;;7900848;28;20577;-87
2023/03/20 01:29:00;;;;;;;9.57;6.50;;;10.40;99.90;;;;;;7895995;28;20250;-87
2023/03/20 01:32:47;;;;;;;10.60;6.67;;;10.30;99.90;;;;;;7907475;28;20188;-88
2023/03/20 01:36:32;;;;;;;9.27;5.83;;;10.20;99.90;;;;;;7917925;28;20191;-87
2023/03/20 01:40:29;;;;;;;8.00;6.30;;;10.20;99.90;;;;;;7936636;28;20180;-88
2023/03/20 01:44:27;;;;;;;11.63;6.33;;;10.20;99.90;;;;;;7889144;28;20219;-88
2023/03/20 01:48:18;;;;;;;9.53;6.43;;;10.20;99.90;;;;;;7912834;28;20212;-87
2023/03/20 01:52:03;;;;;;;9.40;6.87;;;10.30;99.90;;;;;;7905230;28;20181;-87
2023/03/20 01:55:53;;;;;;;9.40;6.30;;;10.30;99.90;;;;;;7915527;28;20222;-87
2023/03/20 02:00:09;;;;;;;9.03;6.60;;;10.20;99.90;;;;;;7899781;28;20187;-88
2023/03/20 02:03:56;;;;;;;9.63;6.83;;;10.20;99.90;;;;;;7889445;28;20219;-87
2023/03/20 02:07:48;;;;;;;10.27;6.90;;;10.20;99.90;;;;;;7916083;28;20206;-88
2023/03/20 02:11:35;;;;;;;10.33;6.77;;;10.10;99.90;;;;;;7895323;28;20643;-87
2023/03/20 02:15:24;;;;;;;10.70;7.40;;;10.10;99.90;;;;;;7885536;28;20325;-87
2023/03/20 02:19:28;;;;;;;11.40;6.67;;;10.10;99.90;;;;;;7915348;28;20196;-87
2023/03/20 02:23:31;;;;;;;8.63;6.10;;;10.00;99.90;;;;;;7903598;28;20215;-88
2023/03/20 02:27:22;;;;;;;8.13;6.07;;;10.00;99.90;;;;;;7899256;28;20203;-87
2023/03/20 02:31:20;;;;;;;7.70;5.83;;;10.00;99.90;;;;;;7907431;28;20216;-86
2023/03/20 02:35:32;;;;;;;8.60;5.80;;;10.00;99.90;;;;;;7909594;28;20208;-86
2023/03/20 02:39:57;;;;;;;8.47;5.63;;;10.00;99.90;;;;;;7887431;28;20192;-87
2023/03/20 02:43:45;;;;;;;9.30;5.33;;;10.00;99.90;;;;;;7868156;28;20212;-87
2023/03/20 02:47:50;;;;;;;7.60;5.40;;;10.00;99.90;;;;;;7898160;28;20284;-87
2023/03/20 02:51:43;;;;;;;8.73;5.50;;;10.00;99.90;;;;;;7906089;28;20181;-87
2023/03/20 02:55:45;;;;;;;10.23;5.80;;;10.00;99.90;;;;;;7914691;28;20237;-87
2023/03/20 02:59:44;;;;;;;9.83;5.53;;;10.00;99.90;;;;;;7909250;28;20181;-87
2023/03/20 03:03:41;;;;;;;10.23;5.73;;;10.00;99.90;;;;;;7900365;28;20228;-87
2023/03/20 03:07:31;;;;;;;10.97;5.47;;;10.00;99.90;;;;;;7913895;28;20207;-87
2023/03/20 03:11:17;;;;;;;8.63;5.90;;;10.00;99.90;;;;;;7905408;28;20188;-88
2023/03/20 03:15:14;;;;;;;7.83;5.13;;;10.00;99.90;;;;;;7895516;28;20212;-87
2023/03/20 03:19:28;;;;;;;7.50;5.50;;;9.90;99.90;;;;;;7904608;28;20180;-87
2023/03/20 03:23:26;;;;;;;7.00;5.50;;;10.00;99.90;;;;;;7911645;28;20209;-87
2023/03/20 03:27:19;;;;;;;7.23;4.70;;;10.00;99.90;;;;;;7944721;28;20169;-88
2023/03/20 03:31:08;;;;;;;9.07;5.13;;;9.90;99.90;;;;;;7917036;28;20240;-87
2023/03/20 03:34:55;;;;;;;8.03;5.07;;;9.90;99.90;;;;;;7910518;28;20205;-86
2023/03/20 03:38:53;;;;;;;10.00;4.67;;;9.90;99.90;;;;;;7928483;28;20185;-86
2023/03/20 03:43:02;;;;;;;6.13;4.60;;;9.90;99.90;;;;;;7915886;28;20187;-87
2023/03/20 03:46:53;;;;;;;8.03;4.93;;;9.90;99.90;;;;;;7908236;28;20181;-86
2023/03/20 03:50:50;;;;;;;6.00;4.67;;;9.90;99.90;;;;;;7913071;28;20216;-88
2023/03/20 03:54:44;;;;;;;6.53;4.70;;;9.90;99.90;;;;;;7896436;28;20724;-87
2023/03/20 03:58:35;;;;;;;10.50;5.00;;;9.90;99.90;;;;;;7920111;28;20203;-87
2023/03/20 04:02:22;;;;;;;5.83;4.77;;;9.90;99.90;;;;;;7903891;28;20192;-87
2023/03/20 04:06:11;;;;;;;7.27;4.73;;;9.90;99.90;;;;;;7907702;28;20224;-87
2023/03/20 04:09:57;;;;;;;7.03;4.80;;;9.80;99.90;;;;;;7882741;28;20732;-87
2023/03/20 04:13:46;;;;;;;8.67;5.30;;;9.90;99.90;;;;;;7913593;28;20196;-87
2023/03/20 04:17:32;;;;;;;7.80;4.63;;;9.90;99.90;;;;;;7911909;28;20180;-87
2023/03/20 04:21:19;;;;;;;6.27;4.80;;;9.90;99.90;;;;;;7919857;28;20215;-87
2023/03/20 04:25:07;;;;;;;8.33;4.60;;;9.80;99.90;;;;;;7903445;28;20200;-88
2023/03/20 04:28:53;;;;;;;6.63;4.57;;;9.80;99.90;;;;;;7904165;28;20254;-87
2023/03/20 04:32:39;;;;;;;6.20;4.60;;;9.80;99.90;;;;;;7876682;28;20176;-87
2023/03/20 04:36:25;;;;;;;5.63;4.50;;;9.80;99.90;;;;;;7912153;28;20224;-86
2023/03/20 04:40:11;;;;;;;8.27;5.13;;;9.80;99.90;;;;;;7912239;28;20192;-88
2023/03/20 04:43:57;;;;;;;6.17;4.30;;;9.80;99.90;;;;;;7895294;28;20309;-86
2023/03/20 04:47:43;;;;;;;6.50;4.20;;;9.80;99.90;;;;;;7909541;28;20184;-87
2023/03/20 04:51:28;;;;;;;6.40;4.67;;;9.80;99.90;;;;;;7915798;28;20184;-87
2023/03/20 04:55:15;;;;;;;6.03;4.23;;;9.80;99.90;;;;;;7897535;28;20218;-85
2023/03/20 04:59:00;;;;;;;6.87;4.50;;;9.80;99.90;;;;;;7894250;28;20188;-87
2023/03/20 05:02:46;;;;;;;7.20;4.40;;;9.90;99.90;;;;;;7900067;28;20233;-87
2023/03/20 05:06:32;;;;;;;6.20;4.27;;;9.90;99.90;;;;;;7900387;28;20208;-87
2023/03/20 05:10:18;;;;;;;7.33;3.77;;;9.90;99.90;;;;;;7900627;28;20212;-87
2023/03/20 05:14:05;;;;;;;5.33;3.97;;;9.80;99.90;;;;;;7904751;28;20213;-86
2023/03/20 05:17:51;;;;;;;5.87;4.50;;;9.80;99.90;;;;;;7907953;28;20193;-87
2023/03/20 05:21:37;;;;;;;5.43;4.20;;;9.90;99.90;;;;;;7914481;28;20192;-87
2023/03/20 05:25:23;;;;;;;8.20;5.00;;;9.80;99.90;;;;;;7909897;28;20212;-87
2023/03/20 05:29:08;;;;;;;5.87;4.80;;;9.80;99.90;;;;;;7886084;28;20212;-85
2023/03/20 05:32:55;;;;;;;6.73;4.77;;;9.80;99.90;;;;;;7888935;28;20339;-88
2023/03/20 05:36:40;;;;;;;8.17;4.50;;;9.80;99.90;;;;;;7880489;28;20182;-87
2023/03/20 05:40:26;;;;;;;6.63;4.50;;;9.80;99.90;;;;;;7879962;28;20180;-88
2023/03/20 05:44:11;;;;;;;6.30;4.50;;;9.80;99.90;;;;;;7898737;28;20230;-90
2023/03/20 05:47:57;;;;;;;7.93;4.83;;;9.80;99.90;;;;;;7916555;28;20287;-84
2023/03/20 05:51:43;;;;;;;9.67;5.03;;;9.80;99.90;;;;;;7900471;28;20254;-88
2023/03/20 05:55:28;;;;;;;8.47;4.90;;;9.90;99.90;;;;;;7908642;28;20316;-85
2023/03/20 05:59:14;;;;;;;6.77;4.73;;;9.80;99.90;;;;;;7899794;28;20252;-81
2023/03/20 06:03:00;;;;;;;6.30;4.60;;;9.80;99.90;;;;;;7898712;28;20188;-87
2023/03/20 06:06:45;;;;;;;10.43;4.47;;;9.80;99.90;;;;;;7894558;28;20176;-86
2023/03/20 06:10:31;;;;;;;4.83;4.07;;;9.80;99.90;;;;;;7892315;28;20656;-88
2023/03/20 06:14:16;;;;;;;9.57;5.40;;;9.80;99.90;;;;;;7896092;28;20200;-86
2023/03/20 06:18:02;;;;;;;5.97;3.83;;;9.80;99.90;;;;;;7910421;28;20192;-87
2023/03/20 06:21:49;;;;;;;4.10;3.70;;;9.80;99.90;;;;;;7881451;28;20208;-85
2023/03/20 06:25:35;;;;;;;5.80;4.60;;;9.80;99.90;;;;;;7871338;28;20207;-86
2023/03/20 06:29:20;;;;;;;6.90;4.90;;;9.80;99.90;;;;;;7888485;28;20208;-86
2023/03/20 06:33:06;;;;;;;7.67;4.50;;;9.80;99.90;;;;;;7899291;28;20176;-87
2023/03/20 06:36:52;;;;;;;6.13;4.50;;;9.80;99.90;;;;;;7920922;28;20180;-87
2023/03/20 06:40:38;;;;;;;6.60;4.60;;;9.90;99.90;;;;;;7898382;28;20709;-86
2023/03/20 06:44:23;;;;;;;7.63;4.93;;;9.80;99.90;;;;;;7883400;28;20552;-87
2023/03/20 06:48:10;;;;;;;6.90;4.40;;;9.80;99.90;;;;;;7900653;28;20552;-89
2023/03/20 06:51:55;;;;;;;6.37;4.43;;;9.90;99.90;;;;;;7908114;28;20198;-87
2023/03/20 06:55:45;;;;;;;7.70;4.93;;;9.90;99.90;;;;;;7920727;28;20204;-88
2023/03/20 06:59:30;;;;;;;12.43;4.80;;;9.90;99.90;;;;;;7893639;28;20185;-86
2023/03/20 07:03:16;;;;;;;9.50;4.70;;;10.00;99.90;;;;;;7924673;28;20506;-84
2023/03/20 07:07:02;;;;;;;7.20;4.87;;;10.00;99.90;;;;;;7913728;28;20204;-88
2023/03/20 07:10:48;;;;;;;7.07;5.37;;;10.00;99.90;;;;;;7912080;28;20214;-89
2023/03/20 07:14:33;;;;;;;7.10;4.40;;;10.10;99.90;;;;;;7913251;28;20208;-86
2023/03/20 07:18:19;;;;;;;5.97;4.83;;;10.20;99.90;;;;;;7901755;28;20231;-86
2023/03/20 07:22:07;;;;;;;5.63;4.33;;;10.10;99.90;;;;;;7896848;28;20702;-87
2023/03/20 07:25:52;;;;;;;7.50;5.23;;;10.20;99.90;;;;;;7872297;28;20318;-87
2023/03/20 07:29:38;;;;;;;7.70;4.90;;;10.40;99.90;;;;;;7894585;28;20242;-90
2023/03/20 07:33:24;;;;;;;7.23;5.13;;;10.50;99.90;;;;;;7887247;28;20220;-88
2023/03/20 07:37:10;;;;;;;9.03;5.30;;;10.60;99.90;;;;;;7899059;28;20646;-87
2023/03/20 07:40:55;;;;;;;7.70;5.10;;;10.70;99.90;;;;;;7907552;28;20181;-87
2023/03/20 07:44:41;;;;;;;7.80;5.33;;;10.70;99.90;;;;;;7893566;28;20219;-87
2023/03/20 07:48:26;;;;;;;8.13;5.20;;;10.80;99.90;;;;;;7909648;28;20212;-86
2023/03/20 07:52:12;;;;;;;7.33;5.27;;;10.80;99.90;;;;;;7899903;28;20547;-87
2023/03/20 07:55:58;;;;;;;5.47;4.80;;;10.90;99.90;;;;;;7913753;28;20475;-85
2023/03/20 07:59:44;;;;;;;6.80;5.30;;;10.90;99.90;;;;;;7883391;28;20248;-86
2023/03/20 08:03:30;;;;;;;7.93;5.30;;;10.90;99.90;;;;;;7905922;28;20235;-87
2023/03/20 08:07:16;;;;;;;7.30;5.50;;;10.80;99.90;;;;;;7899666;28;20213;-87
2023/03/20 08:11:01;;;;;;;6.97;5.60;;;10.90;99.90;;;;;;7905524;28;20225;-87
2023/03/20 08:14:47;;;;;;;6.50;5.80;;;10.90;99.90;;;;;;7871814;28;20197;-88
2023/03/20 08:18:32;;;;;;;9.23;5.93;;;10.90;99.90;;;;;;7871493;28;20181;-87
2023/03/20 08:22:18;;;;;;;8.13;6.20;;;10.90;99.90;;;;;;7870929;28;20182;-88
2023/03/20 08:26:04;;;;;;;7.53;5.97;;;10.80;99.90;;;;;;7882661;28;20234;-87
2023/03/20 08:29:50;;;;;;;7.20;5.47;;;10.80;99.90;;;;;;7891774;28;20299;-87
2023/03/20 08:33:36;;;;;;;9.13;6.47;;;10.80;99.90;;;;;;7902011;28;20192;-88
2023/03/20 08:37:22;;;;;;;10.93;7.87;;;10.90;99.90;;;;;;7886589;28;20181;-88
2023/03/20 08:41:07;;;;;;;13.93;9.33;;;10.90;99.90;;;;;;7901229;28;20184;-88
2023/03/20 08:44:53;;;;;;;12.97;8.27;;;10.80;99.90;;;;;;7918368;28;20200;-88
2023/03/20 08:48:38;;;;;;;9.57;7.20;;;10.90;99.90;;;;;;7916354;28;20192;-85
2023/03/20 08:52:26;;;;;;;9.90;7.77;;;10.90;99.90;;;;;;7923081;28;20197;-88
2023/03/20 08:56:11;;;;;;;11.57;7.63;;;10.90;99.90;;;;;;7892267;28;20223;-88
2023/03/20 08:59:57;;;;;;;11.20;7.80;;;10.90;99.90;;;;;;7916896;28;20184;-86
2023/03/20 09:03:43;;;;;;;10.93;8.17;;;10.90;99.90;;;;;;7903725;28;20219;-88
2023/03/20 09:07:28;;;;;;;13.03;7.93;;;10.90;99.90;;;;;;7906718;28;20192;-88
2023/03/20 09:11:14;;;;;;;12.80;7.73;;;10.90;99.90;;;;;;7916698;28;20619;-86
2023/03/20 09:15:00;;;;;;;10.67;7.80;;;10.90;99.90;;;;;;7896637;28;20199;-86
2023/03/20 09:18:45;;;;;;;12.83;7.97;;;10.90;99.90;;;;;;7900147;28;20185;-87
2023/03/20 09:22:31;;;;;;;12.93;8.33;;;10.90;99.90;;;;;;7911399;28;20190;-88
2023/03/20 09:26:17;;;;;;;15.37;9.57;;;10.90;99.90;;;;;;7888689;28;20232;-88
2023/03/20 09:30:04;;;;;;;17.27;10.40;;;11.00;99.90;;;;;;7898167;28;20203;-87
2023/03/20 09:33:50;;;;;;;18.70;10.70;;;11.00;99.90;;;;;;7898161;28;20226;-88
2023/03/20 09:37:36;;;;;;;14.87;10.57;;;11.10;99.90;;;;;;7902752;28;20173;-86
2023/03/20 09:41:26;;;;;;;17.17;10.87;;;11.10;99.90;;;;;;7900433;28;20654;-87
2023/03/20 09:45:40;;;;;;;17.73;11.50;;;11.20;99.90;;;;;;7896138;28;20205;-88
2023/03/20 09:49:57;;;;;;;21.33;12.63;;;11.20;99.90;;;;;;7868219;28;20193;-88
2023/03/20 09:53:54;;;;;;;24.53;14.97;;;11.20;99.90;;;;;;7869619;28;20750;-87
2023/03/20 09:57:42;;;;;;;24.60;15.37;;;11.20;99.90;;;;;;7911835;28;20187;-86
2023/03/20 10:01:39;;;;;;;24.00;15.13;;;11.20;99.90;;;;;;7887972;28;20193;-86
2023/03/20 10:05:52;;;;;;;24.77;15.53;;;11.20;99.90;;;;;;7895837;28;20546;-87
2023/03/20 10:09:38;;;;;;;26.63;15.83;;;11.30;99.90;;;;;;7891675;28;20239;-86
2023/03/20 10:13:36;;;;;;;31.40;17.50;;;11.40;99.90;;;;;;7899167;28;20602;-87
2023/03/20 10:17:42;;;;;;;27.10;16.97;;;11.40;99.90;;;;;;7906842;28;20182;-87
2023/03/20 10:21:43;;;;;;;29.40;16.33;;;11.40;99.90;;;;;;7901024;28;20188;-88
2023/03/20 10:25:36;;;;;;;29.67;17.30;;;11.50;99.90;;;;;;7896340;28;20234;-89
2023/03/20 10:29:31;;;;;;;41.37;23.03;;;11.50;99.90;;;;;;7869180;28;20184;-88
2023/03/20 10:33:53;;;;;;;37.80;20.47;;;11.50;99.90;;;;;;7890851;28;20618;-88
2023/03/20 10:37:44;;;;;;;36.67;22.50;;;11.60;99.90;;;;;;7920230;28;20188;-86
2023/03/20 10:41:38;;;;;;;39.17;23.67;;;11.70;99.90;;;;;;7886680;28;20584;-88
2023/03/20 10:45:50;;;;;;;37.37;22.60;;;11.80;99.90;;;;;;7867624;28;20258;-89
2023/03/20 10:49:42;;;;;;;39.03;22.17;;;12.00;99.90;;;;;;7771709;28;20892;-85
2023/03/20 10:53:42;;;;;;;43.03;22.87;;;12.10;99.90;;;;;;7771858;28;20684;-88
2023/03/20 10:57:32;;;;;;;40.93;22.40;;;12.30;99.90;;;;;;7754664;28;20784;-88
2023/03/20 11:01:19;;;;;;;37.70;20.53;;;12.50;99.90;;;;;;7771993;28;20349;-87
2023/03/20 11:05:25;;;;;;;38.70;20.43;;;12.50;99.90;;;;;;7772101;28;20592;-88
2023/03/20 11:09:22;;;;;;;32.33;19.03;;;12.50;99.90;;;;;;7757096;28;20286;-88
2023/03/20 11:13:30;;;;;;;32.83;18.57;;;12.40;99.90;;;;;;7776196;28;20191;-91
2023/03/20 11:17:16;;;;;;;38.60;20.60;;;12.40;99.90;;;;;;7774544;28;20269;-88
2023/03/20 11:21:03;;;;;;;34.07;19.23;;;12.40;99.90;;;;;;7775925;28;20286;-87
2023/03/20 11:24:57;;;;;;;36.93;20.07;;;12.30;99.90;;;;;;7803843;28;20577;-88
2023/03/20 11:28:54;;;;;;;34.43;20.30;;;12.30;99.90;;;;;;7894380;28;20339;-88
2023/03/20 11:32:45;;;;;;;35.80;19.17;;;12.20;99.90;;;;;;7873448;28;20172;-88
2023/03/20 11:36:33;;;;;;;36.10;21.20;;;12.30;99.90;;;;;;7896335;28;20193;-88
2023/03/20 11:40:32;;;;;;;31.20;18.73;;;12.50;99.90;;;;;;7883009;28;20184;-88
2023/03/20 11:44:26;;;;;;;28.20;17.63;;;12.60;99.90;;;;;;7898718;28;20260;-88
2023/03/20 11:48:36;;;;;;;28.53;16.07;;;12.70;99.90;;;;;;7897114;28;20227;-87
2023/03/20 11:52:27;;;;;;;25.53;16.03;;;12.80;99.90;;;;;;7889170;28;20211;-87
2023/03/20 11:56:34;;;;;;;29.90;17.30;;;12.80;99.90;;;;;;7902692;28;20612;-88
2023/03/20 12:00:28;;;;;;;26.93;16.53;;;12.80;99.90;;;;;;7889674;28;20238;-89
2023/03/20 12:04:17;;;;;;;24.87;16.17;;;12.70;99.90;;;;;;7898646;28;20212;-88
2023/03/20 12:08:10;;;;;;;28.73;16.97;;;12.80;99.90;;;;;;7902895;28;20220;-88
2023/03/20 12:12:13;;;;;;;30.27;17.03;;;12.80;99.90;;;;;;7896540;28;20859;-87
2023/03/20 12:16:03;;;;;;;27.13;16.30;;;12.90;99.90;;;;;;7913571;28;20253;-89
2023/03/20 12:19:56;;;;;;;27.07;16.20;;;12.80;99.90;;;;;;7909739;28;20199;-89
2023/03/20 12:23:46;;;;;;;25.90;15.93;;;12.80;99.90;;;;;;7915232;28;20209;-88
2023/03/20 12:27:47;;;;;;;27.17;16.87;;;12.80;99.90;;;;;;7895859;28;20243;-89
2023/03/20 12:31:46;;;;;;;26.03;15.73;;;12.80;99.90;;;;;;7896641;28;20234;-88
2023/03/20 12:35:40;;;;;;;29.80;16.47;;;12.80;99.90;;;;;;7896628;28;20250;-87
2023/03/20 12:39:47;;;;;;;24.63;15.80;;;12.80;99.90;;;;;;7881213;28;20186;-88
2023/03/20 12:44:03;;;;;;;29.33;17.83;;;12.80;99.90;;;;;;7870340;28;20217;-88
2023/03/20 12:47:57;;;;;;;28.40;17.43;;;12.80;99.90;;;;;;7871312;28;20181;-88
2023/03/20 12:52:50;;;;;;;29.83;17.70;;;12.80;99.90;;;;;;7873550;28;20162;-88
2023/03/20 12:56:54;;;;;;;30.73;17.57;;;12.80;99.90;;;;;;7725162;28;20223;-89
2023/03/20 13:01:18;;;;;;;30.87;19.50;;;12.70;99.90;;;;;;7717985;28;20193;-88
2023/03/20 13:05:25;;;;;;;31.30;19.10;;;12.70;99.90;;;;;;7697436;28;20220;-88
2023/03/20 13:09:57;;;;;;;28.17;17.60;;;12.70;99.90;;;;;;7697012;28;20768;-88
2023/03/20 13:13:45;;;;;;;31.97;18.77;;;12.70;99.90;;;;;;7638048;29;20263;-89
2023/03/20 13:17:42;;;;;;;28.87;18.43;;;12.70;99.90;;;;;;7616330;29;20194;-88
2023/03/20 13:21:38;;;;;;;25.80;15.60;;;12.70;99.90;;;;;;7630927;29;20705;-89
2023/03/20 13:25:44;;;;;;;27.20;16.00;;;12.70;99.90;;;;;;7625722;29;20707;-90
2023/03/20 13:29:35;;;;;;;28.43;16.30;;;12.80;99.90;;;;;;7682504;28;20687;-88
2023/03/20 13:38:12;;;;;;;22.23;14.00;;;12.90;99.90;;;;;;7682538;29;20273;-89
2023/03/20 13:42:00;;;;;;;28.13;14.97;;;12.80;99.90;;;;;;7735186;28;20278;-89
2023/03/20 13:45:48;;;;;;;27.23;16.17;;;12.80;99.90;;;;;;7869962;28;20232;-89
2023/03/20 13:49:37;;;;;;;28.40;16.93;;;12.80;99.90;;;;;;7897515;28;20219;-89
2023/03/20 13:53:56;;;;;;;32.87;19.20;;;12.80;99.90;;;;;;7876274;28;20205;-89
2023/03/20 13:58:09;;;;;;;31.23;17.80;;;12.70;99.90;;;;;;7895364;28;20267;-88
2023/03/20 14:02:33;;;;;;;31.43;18.10;;;12.70;99.90;;;;;;7906422;28;20181;-89
2023/03/20 14:06:31;;;;;;;29.70;17.93;;;12.70;99.90;;;;;;7935014;28;20196;-89
2023/03/20 14:10:19;;;;;;;30.43;18.57;;;12.70;99.90;;;;;;7892989;28;20212;-88
2023/03/20 14:14:23;;;;;;;30.40;17.70;;;12.60;99.90;;;;;;7889030;28;20243;-89
2023/03/20 14:18:20;;;;;;;32.73;18.03;;;12.60;99.90;;;;;;7880344;28;20539;-88
2023/03/20 14:22:06;;;;;;;34.83;19.47;;;12.60;99.90;;;;;;7899567;28;20195;-89
2023/03/20 14:25:58;;;;;;;31.73;18.37;;;12.60;99.90;;;;;;7892212;28;20197;-88
2023/03/20 14:29:44;;;;;;;34.63;19.87;;;12.60;99.90;;;;;;7876021;28;20236;-89
2023/03/20 14:33:30;;;;;;;33.97;19.10;;;12.60;99.90;;;;;;7891065;28;20690;-88
2023/03/20 14:37:54;;;;;;;33.87;20.50;;;12.60;99.90;;;;;;7892587;28;20171;-89
2023/03/20 14:41:57;;;;;;;36.67;20.90;;;12.60;99.90;;;;;;7880940;28;20188;-89
2023/03/20 14:46:05;;;;;;;38.70;20.73;;;12.60;99.90;;;;;;7884465;28;20611;-89
2023/03/20 14:50:03;;;;;;;39.37;20.23;;;12.60;99.90;;;;;;7905989;28;20193;-88
2023/03/20 14:53:56;;;;;;;47.07;26.27;;;12.60;99.90;;;;;;7887478;28;20201;-88
2023/03/20 14:57:43;;;;;;;45.90;26.40;;;12.60;99.90;;;;;;7882587;28;20174;-89
2023/03/20 15:01:37;;;;;;;42.20;25.13;;;12.60;99.90;;;;;;7902210;28;20201;-88
2023/03/20 15:05:37;;;;;;;36.13;20.20;;;12.60;99.90;;;;;;7877027;28;20199;-88
2023/03/20 15:09:25;;;;;;;39.73;21.90;;;12.60;99.90;;;;;;7895817;28;20273;-88
2023/03/20 15:13:14;;;;;;;36.37;21.70;;;12.50;99.90;;;;;;7893507;28;20204;-87
2023/03/20 15:17:01;;;;;;;37.30;20.93;;;12.40;99.90;;;;;;7898383;28;20630;-88
2023/03/20 15:20:47;;;;;;;36.57;20.87;;;12.40;99.90;;;;;;7882967;28;20185;-88
2023/03/20 15:24:32;;;;;;;33.37;19.67;;;12.40;99.90;;;;;;7903325;28;20228;-88
2023/03/20 15:28:24;;;;;;;35.13;20.47;;;12.40;99.90;;;;;;7892441;28;20209;-89
2023/03/20 15:32:12;;;;;;;37.30;22.57;;;12.40;99.90;;;;;;7898794;28;20181;-89
2023/03/20 15:36:05;;;;;;;45.10;27.13;;;12.40;99.90;;;;;;7903511;28;20196;-88
2023/03/20 15:39:55;;;;;;;122.37;67.43;;;12.40;99.90;;;;;;7909265;27;20211;-88
2023/03/20 15:43:45;;;;;;;185.40;105.77;;;12.30;99.90;;;;;;7895034;28;20201;-88
2023/03/20 15:47:34;;;;;;;93.90;58.73;;;12.20;99.90;;;;;;7894727;28;20173;-89
2023/03/20 15:51:23;;;;;;;42.20;26.07;;;12.20;99.90;;;;;;7921360;28;20211;-89
2023/03/20 15:55:18;;;;;;;44.00;27.67;;;12.20;99.90;;;;;;7903837;28;20207;-88
2023/03/20 15:59:04;;;;;;;48.73;28.47;;;12.20;99.90;;;;;;7892762;28;20180;-88
2023/03/20 16:02:50;;;;;;;37.60;22.93;;;12.20;99.90;;;;;;7891181;28;20639;-88
2023/03/20 16:06:45;;;;;;;42.70;23.37;;;12.20;99.90;;;;;;7891079;28;20188;-88
2023/03/20 16:10:34;;;;;;;41.90;23.33;;;12.10;99.90;;;;;;7902238;28;20212;-88
2023/03/20 16:14:26;;;;;;;50.93;28.27;;;12.10;99.90;;;;;;7897394;28;20888;-88
2023/03/20 16:18:16;;;;;;;47.70;31.03;;;12.10;99.90;;;;;;7894929;28;20649;-88
2023/03/20 16:22:30;;;;;;;44.90;25.40;;;12.10;99.90;;;;;;7896067;28;20196;-88
2023/03/20 16:26:19;;;;;;;50.17;28.10;;;12.10;99.90;;;;;;7898952;28;20346;-89
2023/03/20 16:30:13;;;;;;;40.07;24.07;;;12.10;99.90;;;;;;7884340;28;20283;-89
2023/03/20 16:34:08;;;;;;;42.77;24.10;;;12.00;99.90;;;;;;7899983;28;20209;-88
2023/03/20 16:37:58;;;;;;;40.17;22.87;;;11.90;99.90;;;;;;7884079;28;20183;-89
2023/03/20 16:42:37;;;;;;;45.57;23.23;;;11.80;99.90;;;;;;7888103;28;20847;-88
2023/03/20 16:46:31;;;;;;;39.60;22.70;;;11.70;99.90;;;;;;7892526;28;20201;-88
2023/03/20 16:50:21;;;;;;;40.80;23.77;;;11.60;99.90;;;;;;7887849;28;20679;-90
2023/03/20 16:54:18;;;;;;;38.47;22.73;;;11.50;99.90;;;;;;7896216;28;20670;-88
2023/03/20 16:58:06;;;;;;;36.47;20.07;;;11.50;99.90;;;;;;7897456;28;20666;-88
2023/03/20 17:01:58;;;;;;;35.23;18.80;;;11.40;99.90;;;;;;7900123;28;20617;-88
2023/03/20 17:05:53;;;;;;;35.60;20.47;;;11.30;99.90;;;;;;7892801;28;20223;-88
2023/03/20 17:09:56;;;;;;;35.13;20.13;;;11.40;99.90;;;;;;7888491;28;20218;-88
2023/03/20 17:13:42;;;;;;;39.83;22.30;;;11.40;99.90;;;;;;7895893;28;20674;-89
2023/03/20 17:17:27;;;;;;;40.80;20.97;;;11.30;99.90;;;;;;7897855;28;20612;-88
2023/03/20 17:21:13;;;;;;;37.80;21.47;;;11.30;99.90;;;;;;7894192;28;20180;-88
2023/03/20 17:24:59;;;;;;;31.10;18.50;;;11.30;99.90;;;;;;7891045;28;20291;-88
2023/03/20 17:28:46;;;;;;;30.13;18.17;;;11.40;99.90;;;;;;7888781;28;20193;-88
2023/03/20 17:32:32;;;;;;;28.87;18.37;;;11.40;99.90;;;;;;7898622;28;20282;-89
2023/03/20 17:37:06;;;;;;;27.83;16.33;;;11.30;99.90;;;;;;7904069;28;20208;-90
2023/03/20 17:40:57;;;;;;;24.40;15.00;;;11.30;99.90;;;;;;7892139;28;20185;-89
2023/03/20 17:44:42;;;;;;;24.00;13.43;;;11.30;99.90;;;;;;7897284;28;20197;-89
2023/03/20 17:48:28;;;;;;;22.47;12.40;;;11.20;99.90;;;;;;7899158;28;20204;-86
2023/03/20 17:52:16;;;;;;;19.23;12.50;;;11.20;99.90;;;;;;7897115;28;20672;-88
2023/03/20 17:56:02;;;;;;;19.63;11.57;;;11.10;99.90;;;;;;7897274;28;20237;-88
2023/03/20 17:59:50;;;;;;;18.23;11.57;;;11.10;99.90;;;;;;7893406;28;20275;-88
2023/03/20 18:03:36;;;;;;;20.77;12.10;;;11.10;99.90;;;;;;7915820;28;20283;-88
2023/03/20 18:07:22;;;;;;;19.80;11.17;;;11.10;99.90;;;;;;7893730;28;20191;-89
2023/03/20 18:11:08;;;;;;;16.73;10.83;;;11.10;99.90;;;;;;7894089;28;20215;-88
2023/03/20 18:14:54;;;;;;;19.80;11.47;;;11.00;99.90;;;;;;7891953;28;20670;-89
2023/03/20 18:18:39;;;;;;;18.60;10.93;;;11.10;99.90;;;;;;7889685;28;20225;-88
2023/03/20 18:22:32;;;;;;;16.00;9.30;;;11.10;99.90;;;;;;7894173;28;20180;-88
2023/03/20 18:26:17;;;;;;;13.53;8.70;;;11.10;99.90;;;;;;7890031;28;20210;-88
2023/03/20 18:30:09;;;;;;;15.73;9.80;;;11.00;99.90;;;;;;7882086;28;20193;-88
2023/03/20 18:33:57;;;;;;;26.00;15.23;;;10.90;99.90;;;;;;7885767;28;20291;-88
2023/03/20 18:37:43;;;;;;;73.63;37.20;;;10.80;99.90;;;;;;7886457;28;20184;-88
2023/03/20 18:41:37;;;;;;;32.50;17.70;;;10.80;99.90;;;;;;7894843;28;20191;-89
2023/03/20 18:45:25;;;;;;;27.10;15.60;;;10.80;99.90;;;;;;7887306;28;20908;-88
2023/03/20 18:49:16;;;;;;;28.23;15.47;;;10.80;99.90;;;;;;7887760;28;20653;-88
2023/03/20 18:53:05;;;;;;;15.43;10.40;;;10.90;99.90;;;;;;7898758;28;20538;-88
2023/03/20 18:56:53;;;;;;;13.30;9.33;;;11.00;99.90;;;;;;7898177;28;20181;-88
2023/03/20 19:00:40;;;;;;;16.80;10.20;;;11.00;99.90;;;;;;7895382;28;20183;-89
2023/03/20 19:04:28;;;;;;;29.60;15.40;;;10.90;99.90;;;;;;7882818;28;20209;-89
2023/03/20 19:08:17;;;;;;;40.77;21.93;;;10.90;99.90;;;;;;7872739;28;20250;-88
2023/03/20 19:12:03;;;;;;;53.33;28.23;;;10.90;99.90;;;;;;7886827;28;20241;-88
2023/03/20 19:15:48;;;;;;;34.73;19.93;;;10.90;99.90;;;;;;7895330;28;20242;-88
2023/03/20 19:19:34;;;;;;;28.13;17.83;;;10.90;99.90;;;;;;7893459;28;20173;-89
2023/03/20 19:23:30;;;;;;;20.87;12.70;;;10.80;99.90;;;;;;7921307;28;20226;-90
2023/03/20 19:27:19;;;;;;;20.33;11.27;;;10.80;99.90;;;;;;7901320;28;20184;-88
2023/03/20 19:31:05;;;;;;;17.27;10.23;;;10.80;99.90;;;;;;7897506;28;20193;-89
2023/03/20 19:34:51;;;;;;;14.97;9.37;;;10.70;99.90;;;;;;7915566;28;20202;-88
2023/03/20 19:38:36;;;;;;;14.43;9.47;;;10.70;99.90;;;;;;7896826;28;20319;-88
2023/03/20 19:42:22;;;;;;;13.60;8.70;;;10.70;99.90;;;;;;7915183;28;20228;-88
2023/03/20 19:46:13;;;;;;;14.60;8.80;;;10.70;99.90;;;;;;7877612;28;20196;-88
2023/03/20 19:49:58;;;;;;;12.67;8.80;;;10.70;99.90;;;;;;7903161;28;20404;-88
2023/03/20 19:53:45;;;;;;;13.87;9.23;;;10.70;99.90;;;;;;7919612;28;20201;-88
2023/03/20 19:57:33;;;;;;;12.97;8.70;;;10.70;99.90;;;;;;7899943;28;20188;-88